Map

Track Data

SID SEASON NUMBER BASIN SUBBASIN NAME ISO_TIME NATURE LAT LON WMO_WIND WMO_PRES WMO_AGENCY TRACK_TYPE DIST2LAND LANDFALL IFLAG USA_AGENCY USA_ATCF_ID USA_LAT USA_LON USA_RECORD USA_STATUS USA_WIND USA_PRES USA_SSHS USA_R34_NE USA_R34_SE USA_R34_SW USA_R34_NW USA_R50_NE USA_R50_SE USA_R50_SW USA_R50_NW USA_R64_NE USA_R64_SE USA_R64_SW USA_R64_NW USA_POCI USA_ROCI USA_RMW USA_EYE TOKYO_LAT TOKYO_LON TOKYO_GRADE TOKYO_WIND TOKYO_PRES TOKYO_R50_DIR TOKYO_R50_LONG TOKYO_R50_SHORT TOKYO_R30_DIR TOKYO_R30_LONG TOKYO_R30_SHORT TOKYO_LAND CMA_LAT CMA_LON CMA_CAT CMA_WIND CMA_PRES HKO_LAT HKO_LON HKO_CAT HKO_WIND HKO_PRES NEWDELHI_LAT NEWDELHI_LON NEWDELHI_GRADE NEWDELHI_WIND NEWDELHI_PRES NEWDELHI_CI NEWDELHI_DP NEWDELHI_POCI REUNION_LAT REUNION_LON REUNION_TYPE REUNION_WIND REUNION_PRES REUNION_TNUM REUNION_CI REUNION_RMW REUNION_R34_NE REUNION_R34_SE REUNION_R34_SW REUNION_R34_NW REUNION_R50_NE REUNION_R50_SE REUNION_R50_SW REUNION_R50_NW REUNION_R64_NE REUNION_R64_SE REUNION_R64_SW REUNION_R64_NW BOM_LAT BOM_LON BOM_TYPE BOM_WIND BOM_PRES BOM_TNUM BOM_CI BOM_RMW BOM_R34_NE BOM_R34_SE BOM_R34_SW BOM_R34_NW BOM_R50_NE BOM_R50_SE BOM_R50_SW BOM_R50_NW BOM_R64_NE BOM_R64_SE BOM_R64_SW BOM_R64_NW BOM_ROCI BOM_POCI BOM_EYE BOM_POS_METHOD BOM_PRES_METHOD NADI_LAT NADI_LON NADI_CAT NADI_WIND NADI_PRES WELLINGTON_LAT WELLINGTON_LON WELLINGTON_WIND WELLINGTON_PRES DS824_LAT DS824_LON DS824_STAGE DS824_WIND DS824_PRES TD9636_LAT TD9636_LON TD9636_STAGE TD9636_WIND TD9636_PRES TD9635_LAT TD9635_LON TD9635_WIND TD9635_PRES TD9635_ROCI NEUMANN_LAT NEUMANN_LON NEUMANN_CLASS NEUMANN_WIND NEUMANN_PRES MLC_LAT MLC_LON MLC_CLASS MLC_WIND MLC_PRES USA_GUST BOM_GUST BOM_GUST_PER REUNION_GUST REUNION_GUST_PER USA_SEAHGT USA_SEARAD_NE USA_SEARAD_SE USA_SEARAD_SW USA_SEARAD_NW STORM_SPEED STORM_DIR
1980236N13255 1980 64 EP MM JAVIER 1980-08-22 18:00:00 TS 13.3000 -104.700 25 hurdat_epa main 570 556 O________OO___ hurdat_epa EP101980 13.3000 -104.700 TD 25 -1 13.3000 -104.700 TC 25 13.3000 -104.700 1 25 9 305
1980236N13255 1980 64 EP MM JAVIER 1980-08-22 21:00:00 TS 13.5596 -105.081 main 553 543 P________PP___ EP101980 13.5601 -105.080 TD 27 -1 13.5601 -105.080 TC 27 13.5577 -105.085 1 27 9 303
1980236N13255 1980 64 EP MM JAVIER 1980-08-23 00:00:00 TS 13.8000 -105.500 30 hurdat_epa main 547 540 O________OO___ hurdat_epa EP101980 13.8000 -105.500 TD 30 -1 13.8000 -105.500 TC 30 13.8000 -105.500 1 30 10 297
1980236N13255 1980 64 EP MM JAVIER 1980-08-23 03:00:00 TS 14.0092 -105.981 main 550 545 P________PP___ EP101980 14.0075 -105.985 TD 30 -1 14.0075 -105.985 TC 30 14.0162 -105.964 1 33 10 293
1980236N13255 1980 64 EP MM JAVIER 1980-08-23 06:00:00 TS 14.2027 -106.493 30 hurdat_epa main 559 556 O________OP___ hurdat_epa EP101980 14.2000 -106.500 TD 30 -1 14.2000 -106.500 TC 30 14.2137 -106.466 1 37 11 292
1980236N13255 1980 64 EP MM JAVIER 1980-08-23 09:00:00 TS 14.4008 -106.997 main 574 573 P________PP___ EP101980 14.3999 -107.000 TD 37 0 14.3999 -107.000 TC 37 14.4043 -106.985 1 41 11 292
1980236N13255 1980 64 EP MM JAVIER 1980-08-23 12:00:00 TS 14.6000 -107.500 45 hurdat_epa main 589 585 O________OO___ hurdat_epa EP101980 14.6000 -107.500 TS 45 0 14.6000 -107.500 TC 45 14.6000 -107.500 2 45 11 292
1980236N13255 1980 64 EP MM JAVIER 1980-08-23 15:00:00 TS 14.7998 -107.999 main 598 595 P________PP___ EP101980 14.7924 -108.008 TS 47 0 14.7924 -108.008 TC 47 14.8293 -107.962 2 50 10 293
1980236N13255 1980 64 EP MM JAVIER 1980-08-23 18:00:00 TS 15.0128 -108.484 50 hurdat_epa main 612 611 O________OP___ hurdat_epa EP101980 15.0000 -108.500 TS 50 0 15.0000 -108.500 TC 50 15.0640 -108.420 2 55 10 297
1980236N13255 1980 64 EP MM JAVIER 1980-08-23 21:00:00 TS 15.2581 -108.927 main 616 616 P________PP___ EP101980 15.2497 -108.935 TS 57 0 15.2497 -108.935 TC 57 15.2917 -108.893 2 60 10 299
1980236N13255 1980 64 EP MM JAVIER 1980-08-24 00:00:00 TS 15.5000 -109.400 65 hurdat_epa main 638 638 O________OO___ hurdat_epa EP101980 15.5000 -109.400 HU 65 1 15.5000 -109.400 TC 65 15.5000 -109.400 3 65 11 294
1980236N13255 1980 64 EP MM JAVIER 1980-08-24 03:00:00 TS 15.7123 -109.976 main 669 669 P________PP___ EP101980 15.7225 -109.977 HU 67 1 15.7225 -109.977 TC 67 15.6716 -109.969 3 66 12 289
1980236N13255 1980 64 EP MM JAVIER 1980-08-24 06:00:00 TS 15.8845 -110.594 70 hurdat_epa main 703 703 O________OP___ hurdat_epa EP101980 15.9000 -110.600 HU 70 1 15.9000 -110.600 TC 70 15.8225 -110.571 3 67 12 284
1980236N13255 1980 64 EP MM JAVIER 1980-08-24 09:00:00 TS 15.9983 -111.204 main 749 749 P________PP___ EP101980 16.0074 -111.208 HU 70 1 16.0074 -111.208 TC 70 15.9622 -111.187 3 68 12 281
1980236N13255 1980 64 EP MM JAVIER 1980-08-24 12:00:00 TS 16.1000 -111.800 70 hurdat_epa main 783 778 O________OO___ hurdat_epa EP101980 16.1000 -111.800 HU 70 1 16.1000 -111.800 TC 70 16.1000 -111.800 4 70 11 282
1980236N13255 1980 64 EP MM JAVIER 1980-08-24 15:00:00 TS 16.2413 -112.359 main 790 779 P________PP___ EP101980 16.2422 -112.350 HU 82 1 16.2422 -112.350 TC 82 16.2375 -112.395 4 77 11 285
1980236N13255 1980 64 EP MM JAVIER 1980-08-24 18:00:00 TS 16.3954 -112.916 95 hurdat_epa main 787 787 O________OP___ hurdat_epa EP101980 16.4000 -112.900 HU 95 2 16.4000 -112.900 TC 95 16.3771 -112.981 4 85 12 285
1980236N13255 1980 64 EP MM JAVIER 1980-08-24 21:00:00 TS 16.5337 -113.522 main 804 798 P________PP___ EP101980 16.5351 -113.515 HU 97 3 16.5351 -113.515 TC 97 16.5282 -113.551 4 92 12 285
1980236N13255 1980 64 EP MM JAVIER 1980-08-25 00:00:00 TS 16.7000 -114.100 100 hurdat_epa main 815 811 O________OO___ hurdat_epa EP101980 16.7000 -114.100 HU 100 3 16.7000 -114.100 TC 100 16.7000 -114.100 4 100 11 292
1980236N13255 1980 64 EP MM JAVIER 1980-08-25 03:00:00 TS 16.9351 -114.571 main 825 816 P________PP___ EP101980 16.9421 -114.558 HU 100 3 16.9421 -114.558 TC 100 16.9069 -114.626 4 100 10 299
1980236N13255 1980 64 EP MM JAVIER 1980-08-25 06:00:00 TS 17.1869 -115.026 100 hurdat_epa main 823 823 O________OP___ hurdat_epa EP101980 17.2000 -115.000 HU 100 3 17.2000 -115.000 TC 100 17.1343 -115.130 4 100 11 296
1980236N13255 1980 64 EP MM JAVIER 1980-08-25 09:00:00 TS 17.4000 -115.564 main 848 847 P________PP___ EP101980 17.4076 -115.550 HU 100 3 17.4076 -115.550 TC 100 17.3695 -115.619 4 100 11 292
1980236N13255 1980 64 EP MM JAVIER 1980-08-25 12:00:00 TS 17.6000 -116.100 100 hurdat_epa main 869 869 O________OO___ hurdat_epa EP101980 17.6000 -116.100 HU 100 3 17.6000 -116.100 TC 100 17.6000 -116.100 4 100 10 293
1980236N13255 1980 64 EP MM JAVIER 1980-08-25 15:00:00 TS 17.8019 -116.561 main 893 893 P________PP___ EP101980 17.7997 -116.558 HU 95 2 17.7997 -116.558 TC 95 17.8107 -116.574 4 93 10 295
1980236N13255 1980 64 EP MM JAVIER 1980-08-25 18:00:00 TS 18.0028 -117.009 90 hurdat_epa main 904 901 O________OP___ hurdat_epa EP101980 18.0000 -117.000 HU 90 2 18.0000 -117.000 TC 90 18.0142 -117.043 4 87 10 295
1980236N13255 1980 64 EP MM JAVIER 1980-08-25 21:00:00 TS 18.2080 -117.491 main 916 913 P________PP___ EP101980 18.2074 -117.485 HU 82 1 18.2074 -117.485 TC 82 18.2106 -117.515 4 81 10 293
1980236N13255 1980 64 EP MM JAVIER 1980-08-26 00:00:00 TS 18.4000 -118.000 75 hurdat_epa main 931 931 O________OO___ hurdat_epa EP101980 18.4000 -118.000 HU 75 1 18.4000 -118.000 TC 75 18.4000 -118.000 4 75 11 289
1980236N13255 1980 64 EP MM JAVIER 1980-08-26 03:00:00 TS 18.5572 -118.543 main 949 949 P________PP___ EP101980 18.5500 -118.550 HU 72 1 18.5500 -118.550 TC 72 18.5861 -118.515 4 73 11 287
1980236N13255 1980 64 EP MM JAVIER 1980-08-26 06:00:00 TS 18.7130 -119.089 70 hurdat_epa main 985 985 O________OP___ hurdat_epa EP101980 18.7000 -119.100 HU 70 1 18.7000 -119.100 TC 70 18.7648 -119.043 4 72 11 289
1980236N13255 1980 64 EP MM JAVIER 1980-08-26 09:00:00 TS 18.9071 -119.601 main 1008 1008 P________PP___ EP101980 18.8998 -119.608 HU 70 1 18.8998 -119.608 TC 70 18.9361 -119.574 4 71 10 292
1980236N13255 1980 64 EP MM JAVIER 1980-08-26 12:00:00 TS 19.1000 -120.100 70 hurdat_epa main 1033 1033 O________OO___ hurdat_epa EP101980 19.1000 -120.100 HU 70 1 19.1000 -120.100 TC 70 19.1000 -120.100 4 70 10 290
1980236N13255 1980 64 EP MM JAVIER 1980-08-26 15:00:00 TS 19.2564 -120.602 main 1061 1061 P________PP___ EP101980 19.2574 -120.600 HU 67 1 19.2574 -120.600 TC 67 19.2527 -120.612 4 68 10 288
1980236N13255 1980 64 EP MM JAVIER 1980-08-26 18:00:00 TS 19.3999 -121.103 65 hurdat_epa main 1097 1097 O________OP___ hurdat_epa EP101980 19.4000 -121.100 HU 65 1 19.4000 -121.100 TC 65 19.3994 -121.116 4 67 10 287
1980236N13255 1980 64 EP MM JAVIER 1980-08-26 21:00:00 TS 19.5432 -121.602 main 1130 1122 P________PP___ EP101980 19.5424 -121.600 HU 65 1 19.5424 -121.600 TC 65 19.5465 -121.612 4 66 10 288
1980236N13255 1980 64 EP MM JAVIER 1980-08-27 00:00:00 TS 19.7000 -122.100 65 hurdat_epa main 1147 1146 O________OO___ hurdat_epa EP101980 19.7000 -122.100 HU 65 1 19.7000 -122.100 TC 65 19.7000 -122.100 4 65 10 290
1980236N13255 1980 64 EP MM JAVIER 1980-08-27 03:00:00 TS 19.8910 -122.604 main 1164 1164 P________PP___ EP101980 19.8999 -122.607 HU 60 0 19.8999 -122.607 TC 60 19.8553 -122.591 4 60 10 292
1980236N13255 1980 64 EP MM JAVIER 1980-08-27 06:00:00 TS 20.0839 -123.095 55 hurdat_epa main 1181 1181 O________OP___ hurdat_epa EP101980 20.1000 -123.100 TS 55 0 20.1000 -123.100 TC 55 20.0196 -123.073 4 55 10 292
1980236N13255 1980 64 EP MM JAVIER 1980-08-27 09:00:00 TS 20.2456 -123.549 main 1202 1201 P________PP___ EP101980 20.2573 -123.550 TS 50 0 20.2573 -123.550 TC 50 20.1991 -123.544 4 50 9 290
1980236N13255 1980 64 EP MM JAVIER 1980-08-27 12:00:00 TS 20.4000 -124.000 45 hurdat_epa main 1223 1223 O________OO___ hurdat_epa EP101980 20.4000 -124.000 TS 45 0 20.4000 -124.000 TC 45 20.4000 -124.000 2 45 9 288
1980236N13255 1980 64 EP MM JAVIER 1980-08-27 15:00:00 TS 20.5385 -124.505 main 1254 1254 P________PP___ EP101980 20.5201 -124.515 TS 40 0 20.5201 -124.515 TC 40 20.6121 -124.464 2 41 10 290
1980236N13255 1980 64 EP MM JAVIER 1980-08-27 18:00:00 TS 20.7295 -124.982 35 hurdat_epa main 1279 1272 O________OP___ hurdat_epa EP101980 20.7000 -125.000 TS 35 0 20.7000 -125.000 TC 35 20.8474 -124.910 2 37 10 302
1980236N13255 1980 64 EP MM JAVIER 1980-08-27 21:00:00 TS 21.0377 -125.375 main 1290 1284 P________PP___ EP101980 21.0199 -125.387 TS 32 -1 21.0199 -125.387 TC 32 21.1091 -125.326 2 33 10 315
1980236N13255 1980 64 EP MM JAVIER 1980-08-28 00:00:00 TS 21.4000 -125.700 30 hurdat_epa main 1289 1283 O________OO___ hurdat_epa EP101980 21.4000 -125.700 TD 30 -1 21.4000 -125.700 TC 30 21.4000 -125.700 1 30 9 322
1980236N13255 1980 64 EP MM JAVIER 1980-08-28 03:00:00 TS 21.7432 -125.971 main 1296 1286 P________PP___ EP101980 21.7498 -125.958 TD 30 -1 21.7498 -125.958 TC 30 21.7167 -126.023 1 28 8 325
1980236N13255 1980 64 EP MM JAVIER 1980-08-28 06:00:00 TS 22.0924 -126.221 30 hurdat_epa main 1289 1289 O________OP___ hurdat_epa EP101980 22.1000 -126.200 TD 30 -1 22.1000 -126.200 TC 30 22.0619 -126.303 1 27 9 325
1980236N13255 1980 64 EP MM JAVIER 1980-08-28 09:00:00 TS 22.4452 -126.511 main 1299 1293 P________PP___ EP101980 22.4500 -126.500 TD 27 -1 22.4500 -126.500 TC 27 22.4262 -126.557 1 26 9 323
1980236N13255 1980 64 EP MM JAVIER 1980-08-28 12:00:00 TS 22.8000 -126.800 25 hurdat_epa main 1305 1300 O________OO___ hurdat_epa EP101980 22.8000 -126.800 TD 25 -1 22.8000 -126.800 TC 25 22.8000 -126.800 1 25 9 325
1980236N13255 1980 64 EP MM JAVIER 1980-08-28 15:00:00 TS 23.1490 -127.055 main 1317 1308 P________PP___ EP101980 23.1424 -127.058 TD 25 -1 23.1424 -127.058 TC 25 23.1753 -127.045 1 23 8 327
1980236N13255 1980 64 EP MM JAVIER 1980-08-28 18:00:00 TS 23.5101 -127.299 25 hurdat_epa main 1317 1313 O________OP___ hurdat_epa EP101980 23.5000 -127.300 TD 25 -1 23.5000 -127.300 TC 25 23.5505 -127.294 1 22 9 329
1980236N13255 1980 64 EP MM JAVIER 1980-08-28 21:00:00 TS 23.8972 -127.547 main 1319 1319 P________PP___ EP101980 23.8901 -127.547 TD 22 -1 23.8901 -127.547 TC 22 23.9254 -127.546 1 21 9 330
1980236N13255 1980 64 EP MM JAVIER 1980-08-29 00:00:00 TS 24.3000 -127.800 20 hurdat_epa main 1329 O________OO___ hurdat_epa EP101980 24.3000 -127.800 TD 20 -1 24.3000 -127.800 TC 20 24.3000 -127.800 1 20 9 330

About IBTrACS Database

This database is a web-friendly format of International Best Track Archive for Climate Stewardship (IBTrACS), a global best track data archive curated by NOAA dating back to 1842.

Updated: 2021-11-26